Latest METARs, TAFs and NOTAMs for ETSI


---------------------------------------------------------------------------
	(OBSERVATIONS)
ETSI 191620Z AUTO 07011KT 6000 // ////// 17/08 Q1008 ///=
ETSI 191520Z AUTO 06014KT 6000 // ////// 16/07 Q1008 ///=
ETSI 191420Z AUTO 08009KT 6000 // ////// 16/07 Q1008 ///=
---------------------------------------------------------------------------
	(FC)
TAF ETSI 161315Z 1614/1623 03007KT 9999 NSW SCT025 BKN045 BKN070
     BECMG 1618/1620 VRB03KT 9999 NSW FEW035 FEW070=
---------------------------------------------------------------------------
	(TERMINAL AREA FORECAST)
ETSI 171315Z 1714/1723 12006KT 9999 NSW FEW180 BKN240
    BECMG  1720/1722 16003KT 9999 NSW FEW050 BKN180
    CANCEL 1400=
---------------------------------------------------------------------------
	(NOTAMS)


ETSI P1176/14 AD ETSI: LVTO-PROCEDURE SUSPENDED. 27 FEB 07:54
    2014 UNTIL 23 MAY 12:00 2014. CREATED: 27 FEB 07:58 2014

ETSI P1179/14 AD ETSI: NO SRA POSSIBLE. 27 FEB 08:07 2014 UNTIL
    23 MAY 12:00 2014. CREATED: 27 FEB 08:12 2014

ETSI P1180/14 AD ETSI: PAR RWY25R/07L OUT OF SERVICE. 27 FEB
    08:10 2014 UNTIL 23 MAY 12:00 2014. CREATED: 27 FEB 08:13
    2014

ETSI P2324/14 AD ETSI: RWY25R/07L VFR ONLY. 16 APR 12:48 2014
    UNTIL 11 JUL 12:00 2014. CREATED: 16 APR 12:53 2014

---------------------------------------------------------------------------